createdAt,value
2018-08-25T00:00:39.606Z,95094.00
2018-08-25T00:03:10.552Z,95089.00
2018-08-25T00:05:41.594Z,95091.00
2018-08-25T00:08:12.576Z,95091.00
2018-08-25T00:10:43.638Z,95090.00
2018-08-25T00:13:14.689Z,95082.00
2018-08-25T00:15:45.634Z,95083.00
2018-08-25T00:18:16.499Z,95077.00
2018-08-25T00:20:47.464Z,95079.00
2018-08-25T00:23:18.508Z,95078.00
2018-08-25T00:25:49.555Z,95076.00
2018-08-25T00:28:20.569Z,95080.00
2018-08-25T00:30:56.575Z,95068.00
2018-08-25T00:33:27.832Z,95072.00
2018-08-25T00:35:58.829Z,95068.00
2018-08-25T00:38:29.850Z,95063.00
2018-08-25T00:41:00.897Z,95061.00
2018-08-25T00:43:31.950Z,95067.00
2018-08-25T00:46:03.077Z,95063.00
2018-08-25T00:48:34.147Z,95058.00
2018-08-25T00:51:05.422Z,95053.00
2018-08-25T00:53:37.230Z,95062.00
2018-08-25T00:56:08.320Z,95067.00
2018-08-25T00:58:39.302Z,95061.00
2018-08-25T01:01:10.444Z,95058.00
2018-08-25T01:03:41.322Z,95068.00
2018-08-25T01:06:12.322Z,95064.00
2018-08-25T01:08:43.252Z,95065.00
2018-08-25T01:11:14.280Z,95067.00
2018-08-25T01:13:45.398Z,95069.00
2018-08-25T01:16:16.436Z,95071.00
2018-08-25T01:18:47.484Z,95078.00
2018-08-25T01:21:18.328Z,95077.00
2018-08-25T01:23:49.134Z,95077.00
2018-08-25T01:26:19.943Z,95077.00
2018-08-25T01:28:50.810Z,95081.00
2018-08-25T01:31:21.677Z,95075.00
2018-08-25T01:33:52.482Z,95076.00
2018-08-25T01:36:23.295Z,95073.00
2018-08-25T01:38:54.223Z,95077.00
2018-08-25T01:41:25.630Z,95075.00
2018-08-25T01:43:56.458Z,95085.00
2018-08-25T01:46:27.344Z,95084.00
2018-08-25T01:48:58.142Z,95088.00
2018-08-25T01:51:28.943Z,95084.00
2018-08-25T01:53:59.746Z,95090.00
2018-08-25T01:56:30.640Z,95083.00
2018-08-25T01:59:01.478Z,95082.00
2018-08-25T02:01:32.312Z,95081.00
2018-08-25T02:04:03.088Z,95082.00
2018-08-25T02:06:33.997Z,95084.00
2018-08-25T02:09:07.257Z,95082.00
2018-08-25T02:11:38.138Z,95085.00
2018-08-25T02:14:09.722Z,95101.00
2018-08-25T02:16:41.526Z,95102.00
2018-08-25T02:19:12.437Z,95094.00
2018-08-25T02:21:43.295Z,95102.00
2018-08-25T02:24:14.091Z,95105.00
2018-08-25T02:26:44.935Z,95097.00
2018-08-25T02:29:15.743Z,95094.00
2018-08-25T02:31:46.702Z,95088.00
2018-08-25T02:34:17.551Z,95085.00
2018-08-25T02:36:48.442Z,95086.00
2018-08-25T02:39:19.243Z,95094.00
2018-08-25T02:41:50.143Z,95087.00
2018-08-25T02:44:21.076Z,95093.00
2018-08-25T02:46:51.994Z,95093.00
2018-08-25T02:49:22.882Z,95095.00
2018-08-25T02:51:53.676Z,95095.00
2018-08-25T02:54:24.505Z,95095.00
2018-08-25T02:56:55.390Z,95086.00
2018-08-25T02:59:26.258Z,95082.00
2018-08-25T03:01:57.143Z,95094.00
2018-08-25T03:04:27.955Z,95083.00
2018-08-25T03:06:58.834Z,95092.00
2018-08-25T03:09:29.644Z,95093.00
2018-08-25T03:12:00.564Z,95086.00
2018-08-25T03:14:31.339Z,95088.00
2018-08-25T03:17:02.255Z,95085.00
2018-08-25T03:19:32.963Z,95073.00
2018-08-25T03:22:03.712Z,95085.00
2018-08-25T03:24:34.555Z,95087.00
2018-08-25T03:27:05.390Z,95089.00
2018-08-25T03:29:36.135Z,95082.00
2018-08-25T03:32:06.928Z,95080.00
2018-08-25T03:34:37.566Z,95081.00
2018-08-25T03:37:08.283Z,95084.00
2018-08-25T03:39:38.914Z,95080.00
2018-08-25T03:42:09.563Z,95076.00
2018-08-25T03:44:40.207Z,95074.00
2018-08-25T03:47:10.967Z,95080.00
2018-08-25T03:49:41.646Z,95075.00
2018-08-25T03:52:12.396Z,95075.00
2018-08-25T03:54:43.039Z,95068.00
2018-08-25T03:57:13.771Z,95061.00
2018-08-25T03:59:44.467Z,95061.00
2018-08-25T04:02:15.137Z,95051.00
2018-08-25T04:04:45.782Z,95056.00
2018-08-25T04:07:17.303Z,95060.00
2018-08-25T04:09:47.976Z,95059.00
2018-08-25T04:12:18.635Z,95060.00
2018-08-25T04:14:49.318Z,95054.00
2018-08-25T04:17:20.143Z,95051.00
2018-08-25T04:19:50.855Z,95050.00
2018-08-25T04:22:21.777Z,95046.00
2018-08-25T04:24:52.502Z,95052.00
2018-08-25T04:27:23.448Z,95050.00
2018-08-25T04:29:54.168Z,95047.00
2018-08-25T04:32:24.950Z,95052.00
2018-08-25T04:34:55.660Z,95050.00
2018-08-25T04:37:26.417Z,95063.00
2018-08-25T04:39:57.171Z,95062.00
2018-08-25T04:42:28.645Z,95072.00
2018-08-25T04:44:59.352Z,95077.00
2018-08-25T04:47:30.171Z,95086.00
2018-08-25T04:50:00.975Z,95092.00
2018-08-25T04:52:31.946Z,95084.00
2018-08-25T04:55:02.634Z,95092.00
2018-08-25T04:57:33.469Z,95099.00
2018-08-25T05:00:04.487Z,95096.00
2018-08-25T05:02:35.256Z,95106.00
2018-08-25T05:05:05.988Z,95107.00
2018-08-25T05:07:36.691Z,95107.00
2018-08-25T05:10:07.429Z,95098.00
2018-08-25T05:12:38.095Z,95093.00
2018-08-25T05:15:08.803Z,95093.00
2018-08-25T05:17:39.536Z,95099.00
2018-08-25T05:20:10.209Z,95101.00
2018-08-25T05:22:41.007Z,95098.00
2018-08-25T05:25:11.630Z,95094.00
2018-08-25T05:27:42.330Z,95100.00
2018-08-25T05:30:13.034Z,95096.00
2018-08-25T05:32:43.768Z,95084.00
2018-08-25T05:35:14.375Z,95089.00
2018-08-25T05:37:45.143Z,95089.00
2018-08-25T05:40:15.898Z,95083.00
2018-08-25T05:42:46.586Z,95089.00
2018-08-25T05:45:17.400Z,95085.00
2018-08-25T05:47:48.174Z,95094.00
2018-08-25T05:50:19.222Z,95090.00
2018-08-25T05:52:49.851Z,95097.00
2018-08-25T05:55:20.519Z,95097.00
2018-08-25T05:57:51.194Z,95097.00
2018-08-25T06:00:21.881Z,95098.00
2018-08-25T06:02:52.653Z,95097.00
2018-08-25T06:05:23.288Z,95093.00
2018-08-25T06:07:54.025Z,95088.00
2018-08-25T06:10:24.675Z,95080.00
2018-08-25T06:12:55.374Z,95074.00
2018-08-25T06:15:25.981Z,95075.00
2018-08-25T06:17:56.674Z,95072.00
2018-08-25T06:20:27.345Z,95082.00
2018-08-25T06:22:58.007Z,95073.00
2018-08-25T06:25:28.706Z,95073.00
2018-08-25T06:27:59.444Z,95072.00
2018-08-25T06:30:30.142Z,95072.00
2018-08-25T06:33:00.831Z,95071.00
2018-08-25T06:35:31.690Z,95068.00
2018-08-25T06:38:02.620Z,95067.00
2018-08-25T06:40:33.535Z,95069.00
2018-08-25T06:43:04.568Z,95065.00
2018-08-25T06:45:35.701Z,95062.00
2018-08-25T06:48:06.785Z,95073.00
2018-08-25T06:50:37.469Z,95071.00
2018-08-25T06:53:08.176Z,95069.00
2018-08-25T06:55:38.830Z,95066.00
2018-08-25T06:58:09.515Z,95068.00
2018-08-25T07:00:40.289Z,95071.00
2018-08-25T07:03:10.991Z,95072.00
2018-08-25T07:05:41.743Z,95076.00
2018-08-25T07:08:12.515Z,95084.00
2018-08-25T07:10:43.310Z,95082.00
2018-08-25T07:13:14.104Z,95084.00
2018-08-25T07:15:45.109Z,95091.00
2018-08-25T07:18:15.910Z,95085.00
2018-08-25T07:20:46.662Z,95075.00
2018-08-25T07:23:17.536Z,95084.00
2018-08-25T07:25:48.383Z,95082.00
2018-08-25T07:28:19.172Z,95086.00
2018-08-25T07:30:50.167Z,95082.00
2018-08-25T07:33:21.085Z,95088.00
2018-08-25T07:35:52.058Z,95079.00
2018-08-25T07:38:22.859Z,95083.00
2018-08-25T07:40:53.554Z,95077.00
2018-08-25T07:43:24.348Z,95083.00
2018-08-25T07:45:55.051Z,95084.00
2018-08-25T07:48:25.971Z,95082.00
2018-08-25T07:50:56.934Z,95074.00
2018-08-25T07:53:27.711Z,95079.00
2018-08-25T07:55:58.429Z,95080.00
2018-08-25T07:58:29.214Z,95077.00
2018-08-25T08:00:59.917Z,95086.00
2018-08-25T08:03:30.731Z,95090.00
2018-08-25T08:06:01.527Z,95084.00
2018-08-25T08:08:32.527Z,95090.00
2018-08-25T08:11:03.267Z,95088.00
2018-08-25T08:13:34.829Z,95086.00
2018-08-25T08:16:05.534Z,95088.00
2018-08-25T08:18:36.476Z,95090.00
2018-08-25T08:21:07.267Z,95093.00
2018-08-25T08:23:38.554Z,95099.00
2018-08-25T08:26:09.258Z,95088.00
2018-08-25T08:28:40.055Z,95084.00
2018-08-25T08:31:10.794Z,95089.00
2018-08-25T08:33:41.685Z,95093.00
2018-08-25T08:36:12.473Z,95093.00
2018-08-25T08:38:45.493Z,95086.00
2018-08-25T08:41:16.310Z,95090.00
2018-08-25T08:43:47.314Z,95090.00
2018-08-25T08:46:23.553Z,95093.00
2018-08-25T08:48:54.400Z,95094.00
2018-08-25T08:51:25.228Z,95096.00
2018-08-25T08:53:56.039Z,95100.00
2018-08-25T08:56:27.023Z,95091.00
2018-08-25T08:58:58.167Z,95080.00
2018-08-25T09:01:29.010Z,95071.00
2018-08-25T09:03:59.927Z,95072.00
2018-08-25T09:06:30.710Z,95076.00
2018-08-25T09:09:01.768Z,95064.00
2018-08-25T09:11:33.145Z,95067.00
2018-08-25T09:14:04.201Z,95072.00
2018-08-25T09:16:35.155Z,95074.00
2018-08-25T09:19:06.675Z,95069.00
2018-08-25T09:21:37.412Z,95078.00
2018-08-25T09:24:09.098Z,95073.00
2018-08-25T09:26:40.059Z,95075.00
2018-08-25T09:29:11.434Z,95067.00
2018-08-25T09:31:42.441Z,95056.00
2018-08-25T09:34:13.226Z,95056.00
2018-08-25T09:36:44.561Z,95051.00
2018-08-25T09:39:15.444Z,95049.00
2018-08-25T09:41:46.577Z,95049.00
2018-08-25T09:44:17.485Z,95047.00
2018-08-25T09:46:48.276Z,95047.00
2018-08-25T09:49:19.136Z,95047.00
2018-08-25T09:51:49.924Z,95042.00
2018-08-25T09:54:20.991Z,95041.00
2018-08-25T09:56:51.770Z,95038.00
2018-08-25T09:59:22.719Z,95033.00
2018-08-25T10:01:59.646Z,95028.00
2018-08-25T10:04:31.399Z,95030.00
2018-08-25T10:07:02.289Z,95017.00
2018-08-25T10:09:33.239Z,95016.00
2018-08-25T10:12:03.917Z,95018.00
2018-08-25T10:14:34.583Z,95005.00
2018-08-25T10:17:05.274Z,95006.00
2018-08-25T10:19:35.991Z,94994.00
2018-08-25T10:22:06.666Z,94997.00
2018-08-25T10:24:37.387Z,94991.00
2018-08-25T10:27:08.045Z,94991.00
2018-08-25T10:29:38.850Z,94984.00
2018-08-25T10:32:09.632Z,94979.00
2018-08-25T10:34:40.433Z,94990.00
2018-08-25T10:37:11.440Z,94988.00
2018-08-25T10:39:42.332Z,94982.00
2018-08-25T10:42:13.202Z,94965.00
2018-08-25T10:44:43.938Z,94972.00
2018-08-25T10:47:14.967Z,94967.00
2018-08-25T10:49:46.007Z,94963.00
2018-08-25T10:52:17.077Z,94966.00
2018-08-25T10:54:47.959Z,94962.00
2018-08-25T10:57:18.709Z,94960.00
2018-08-25T10:59:49.492Z,94968.00
2018-08-25T11:02:25.845Z,94974.00
2018-08-25T11:04:56.632Z,94969.00
2018-08-25T11:07:27.356Z,94977.00
2018-08-25T11:09:58.259Z,94971.00
2018-08-25T11:12:29.004Z,94973.00
2018-08-25T11:14:59.870Z,94974.00
2018-08-25T11:17:30.598Z,94966.00
2018-08-25T11:20:01.433Z,94961.00
2018-08-25T11:22:32.273Z,94964.00
2018-08-25T11:25:03.320Z,94971.00
2018-08-25T11:27:34.294Z,94970.00
2018-08-25T11:30:05.283Z,94973.00
2018-08-25T11:32:36.096Z,94975.00
2018-08-25T11:35:07.899Z,94975.00
2018-08-25T11:37:38.735Z,94981.00
2018-08-25T11:40:09.513Z,94985.00
2018-08-25T11:42:40.463Z,94985.00
2018-08-25T11:45:11.343Z,94983.00
2018-08-25T11:47:42.095Z,94991.00
2018-08-25T11:50:12.823Z,94989.00
2018-08-25T11:52:43.583Z,94977.00
2018-08-25T11:55:14.472Z,94982.00
2018-08-25T11:57:45.215Z,94983.00
2018-08-25T12:00:16.511Z,94981.00
2018-08-25T12:02:47.283Z,95001.00
2018-08-25T12:05:18.047Z,95001.00
2018-08-25T12:07:49.060Z,95003.00
2018-08-25T12:10:20.507Z,95000.00
2018-08-25T12:12:52.288Z,94994.00
2018-08-25T12:15:23.003Z,95007.00
2018-08-25T12:17:53.644Z,95001.00
2018-08-25T12:20:24.827Z,95004.00
2018-08-25T12:22:55.763Z,94998.00
2018-08-25T12:25:27.213Z,94995.00
2018-08-25T12:27:57.896Z,95000.00
2018-08-25T12:30:30.786Z,94993.00
2018-08-25T12:33:05.731Z,94996.00
2018-08-25T12:35:36.863Z,95002.00
2018-08-25T12:38:13.469Z,95005.00
2018-08-25T12:40:46.116Z,95002.00
2018-08-25T12:43:19.554Z,95009.00
2018-08-25T12:45:50.637Z,95010.00
2018-08-25T12:48:22.583Z,95001.00
2018-08-25T12:50:53.415Z,94998.00
2018-08-25T12:53:24.155Z,95000.00
2018-08-25T12:55:55.838Z,95004.00
2018-08-25T12:58:26.561Z,95005.00
2018-08-25T13:00:57.307Z,95006.00
2018-08-25T13:03:28.097Z,95002.00
2018-08-25T13:05:58.891Z,95008.00
2018-08-25T13:08:29.795Z,95016.00
2018-08-25T13:11:00.682Z,95016.00
2018-08-25T13:13:31.431Z,95021.00
2018-08-25T13:16:02.291Z,95019.00
2018-08-25T13:18:33.121Z,95023.00
2018-08-25T13:21:03.967Z,95024.00
2018-08-25T13:23:34.751Z,95032.00
2018-08-25T13:26:05.692Z,95022.00
2018-08-25T13:28:36.795Z,95014.00
2018-08-25T13:31:07.704Z,95019.00
2018-08-25T13:33:38.367Z,95018.00
2018-08-25T13:36:09.096Z,95012.00
2018-08-25T13:38:39.835Z,95011.00
2018-08-25T13:41:10.611Z,95017.00
2018-08-25T13:43:41.569Z,95015.00
2018-08-25T13:46:12.415Z,95015.00
2018-08-25T13:48:43.231Z,95017.00
2018-08-25T13:51:14.261Z,95011.00
2018-08-25T13:53:45.227Z,95015.00
2018-08-25T13:56:16.171Z,95019.00
2018-08-25T13:58:48.585Z,95021.00
2018-08-25T14:01:19.965Z,95020.00
2018-08-25T14:03:50.967Z,95024.00
2018-08-25T14:06:22.325Z,95024.00
2018-08-25T14:08:53.039Z,95020.00
2018-08-25T14:11:23.707Z,95022.00
2018-08-25T14:13:54.382Z,95026.00
2018-08-25T14:16:25.419Z,95017.00
2018-08-25T14:18:56.052Z,95013.00
2018-08-25T14:21:26.925Z,95005.00
2018-08-25T14:23:57.711Z,95010.00
2018-08-25T14:26:28.470Z,95006.00
2018-08-25T14:28:59.191Z,95014.00
2018-08-25T14:31:29.838Z,95018.00
2018-08-25T14:34:00.686Z,95017.00
2018-08-25T14:36:31.531Z,95018.00
2018-08-25T14:39:02.330Z,95020.00
2018-08-25T14:41:33.439Z,95022.00
2018-08-25T14:44:05.303Z,95022.00
2018-08-25T14:46:37.537Z,95020.00
2018-08-25T14:49:09.174Z,95032.00
2018-08-25T14:51:39.955Z,95030.00
2018-08-25T14:54:10.711Z,95032.00
2018-08-25T14:56:41.466Z,95044.00
2018-08-25T14:59:12.493Z,95048.00
2018-08-25T15:01:43.313Z,95045.00
2018-08-25T15:04:14.200Z,95051.00
2018-08-25T15:06:45.947Z,95050.00
2018-08-25T15:09:16.810Z,95046.00
2018-08-25T15:11:47.778Z,95055.00
2018-08-25T15:14:19.348Z,95057.00
2018-08-25T15:16:50.343Z,95063.00
2018-08-25T15:19:21.695Z,95061.00
2018-08-25T15:21:52.515Z,95054.00
2018-08-25T15:24:23.323Z,95052.00
2018-08-25T15:26:54.359Z,95057.00
2018-08-25T15:29:25.880Z,95061.00
2018-08-25T15:31:56.699Z,95058.00
2018-08-25T15:34:27.935Z,95059.00
2018-08-25T15:36:59.013Z,95050.00
2018-08-25T15:39:30.203Z,95056.00
2018-08-25T15:42:01.043Z,95056.00
2018-08-25T15:44:31.765Z,95052.00
2018-08-25T15:47:02.578Z,95062.00
2018-08-25T15:49:33.338Z,95064.00
2018-08-25T15:52:04.184Z,95056.00
2018-08-25T15:54:35.019Z,95060.00
2018-08-25T15:57:06.107Z,95059.00
2018-08-25T15:59:37.263Z,95057.00
2018-08-25T16:02:08.035Z,95054.00
2018-08-25T16:04:38.860Z,95043.00
2018-08-25T16:07:10.918Z,95048.00
2018-08-25T16:09:43.404Z,95045.00
2018-08-25T16:12:14.269Z,95053.00
2018-08-25T16:14:45.342Z,95053.00
2018-08-25T16:17:16.110Z,95063.00
2018-08-25T16:19:48.033Z,95066.00
2018-08-25T16:22:18.809Z,95068.00
2018-08-25T16:24:49.656Z,95063.00
2018-08-25T16:27:20.359Z,95054.00
2018-08-25T16:29:51.044Z,95055.00
2018-08-25T16:32:21.686Z,95058.00
2018-08-25T16:34:52.418Z,95062.00
2018-08-25T16:37:23.441Z,95062.00
2018-08-25T16:39:54.322Z,95070.00
2018-08-25T16:42:25.135Z,95079.00
2018-08-25T16:44:55.976Z,95083.00
2018-08-25T16:47:26.833Z,95079.00
2018-08-25T16:49:57.807Z,95074.00
2018-08-25T16:52:28.647Z,95079.00
2018-08-25T16:54:59.500Z,95079.00
2018-08-25T16:57:30.303Z,95081.00
2018-08-25T17:00:01.271Z,95082.00
2018-08-25T17:02:31.987Z,95084.00
2018-08-25T17:05:02.808Z,95078.00
2018-08-25T17:07:34.218Z,95068.00
2018-08-25T17:10:05.735Z,95067.00
2018-08-25T17:12:37.375Z,95066.00
2018-08-25T17:15:08.625Z,95069.00
2018-08-25T17:17:39.436Z,95080.00
2018-08-25T17:20:10.314Z,95074.00
2018-08-25T17:22:42.082Z,95080.00
2018-08-25T17:25:12.806Z,95086.00
2018-08-25T17:27:43.490Z,95081.00
2018-08-25T17:30:15.204Z,95088.00
2018-08-25T17:32:45.924Z,95091.00
2018-08-25T17:35:17.534Z,95091.00
2018-08-25T17:37:48.402Z,95091.00
2018-08-25T17:40:19.175Z,95100.00
2018-08-25T17:42:49.955Z,95096.00
2018-08-25T17:45:20.669Z,95099.00
2018-08-25T17:47:51.418Z,95094.00
2018-08-25T17:50:22.121Z,95094.00
2018-08-25T17:52:52.897Z,95097.00
2018-08-25T17:55:23.768Z,95100.00
2018-08-25T17:57:54.501Z,95106.00
2018-08-25T18:00:25.315Z,95103.00
2018-08-25T18:02:55.995Z,95101.00
2018-08-25T18:05:26.733Z,95109.00
2018-08-25T18:07:57.503Z,95114.00
2018-08-25T18:10:28.280Z,95121.00
2018-08-25T18:12:59.045Z,95116.00
2018-08-25T18:15:29.872Z,95127.00
2018-08-25T18:18:01.409Z,95137.00
2018-08-25T18:20:33.855Z,95141.00
2018-08-25T18:23:04.724Z,95155.00
2018-08-25T18:25:35.773Z,95161.00
2018-08-25T18:28:06.795Z,95157.00
2018-08-25T18:30:38.674Z,95161.00
2018-08-25T18:33:09.916Z,95168.00
2018-08-25T18:35:40.923Z,95178.00
2018-08-25T18:38:11.837Z,95183.00
2018-08-25T18:40:42.840Z,95179.00
2018-08-25T18:43:13.689Z,95183.00
2018-08-25T18:45:45.304Z,95181.00
2018-08-25T18:48:16.230Z,95189.00
2018-08-25T18:50:47.119Z,95196.00
2018-08-25T18:53:18.303Z,95196.00
2018-08-25T18:55:49.329Z,95203.00
2018-08-25T18:58:20.976Z,95206.00
2018-08-25T19:00:51.919Z,95209.00
2018-08-25T19:03:22.855Z,95209.00
2018-08-25T19:05:54.453Z,95215.00
2018-08-25T19:08:25.368Z,95218.00
2018-08-25T19:10:56.389Z,95217.00
2018-08-25T19:13:27.169Z,95220.00
2018-08-25T19:15:57.960Z,95226.00
2018-08-25T19:18:28.750Z,95231.00
2018-08-25T19:20:59.641Z,95235.00
2018-08-25T19:23:30.364Z,95223.00
2018-08-25T19:26:01.266Z,95227.00
2018-08-25T19:28:31.979Z,95225.00
2018-08-25T19:31:03.571Z,95228.00
2018-08-25T19:33:34.253Z,95224.00
2018-08-25T19:36:05.155Z,95223.00
2018-08-25T19:38:35.966Z,95232.00
2018-08-25T19:41:06.948Z,95225.00
2018-08-25T19:43:37.862Z,95229.00
2018-08-25T19:46:08.872Z,95236.00
2018-08-25T19:48:39.821Z,95231.00
2018-08-25T19:51:10.630Z,95230.00
2018-08-25T19:53:41.922Z,95230.00
2018-08-25T19:56:12.972Z,95234.00
2018-08-25T19:58:43.860Z,95233.00
2018-08-25T20:01:14.762Z,95237.00
2018-08-25T20:03:45.463Z,95241.00
2018-08-25T20:06:16.247Z,95244.00
2018-08-25T20:08:46.974Z,95244.00
2018-08-25T20:11:17.874Z,95250.00
2018-08-25T20:13:48.717Z,95239.00
2018-08-25T20:16:19.762Z,95238.00
2018-08-25T20:18:51.098Z,95243.00
2018-08-25T20:21:21.932Z,95239.00
2018-08-25T20:23:52.690Z,95240.00
2018-08-25T20:26:23.615Z,95242.00
2018-08-25T20:28:54.350Z,95242.00
2018-08-25T20:31:26.548Z,95254.00
2018-08-25T20:33:57.820Z,95247.00
2018-08-25T20:36:28.585Z,95248.00
2018-08-25T20:38:59.357Z,95252.00
2018-08-25T20:41:30.308Z,95255.00
2018-08-25T20:44:01.611Z,95258.00
2018-08-25T20:46:32.364Z,95258.00
2018-08-25T20:49:05.479Z,95263.00
2018-08-25T20:51:36.912Z,95260.00
2018-08-25T20:54:11.411Z,95262.00
2018-08-25T20:56:42.178Z,95271.00
2018-08-25T20:59:13.543Z,95268.00
2018-08-25T21:01:44.634Z,95264.00
2018-08-25T21:04:15.386Z,95264.00
2018-08-25T21:06:46.340Z,95266.00
2018-08-25T21:09:17.172Z,95268.00
2018-08-25T21:11:47.967Z,95271.00
2018-08-25T21:14:18.859Z,95267.00
2018-08-25T21:16:49.695Z,95271.00
2018-08-25T21:19:20.787Z,95270.00
2018-08-25T21:21:54.131Z,95267.00
2018-08-25T21:24:25.071Z,95264.00
2018-08-25T21:26:55.966Z,95257.00
2018-08-25T21:29:26.764Z,95251.00
2018-08-25T21:31:57.581Z,95251.00
2018-08-25T21:34:28.386Z,95251.00
2018-08-25T21:36:59.222Z,95255.00
2018-08-25T21:39:29.964Z,95252.00
2018-08-25T21:42:00.771Z,95260.00
2018-08-25T21:44:31.499Z,95261.00
2018-08-25T21:47:02.509Z,95266.00
2018-08-25T21:49:36.331Z,95255.00
2018-08-25T21:52:07.130Z,95250.00
2018-08-25T21:54:37.892Z,95247.00
2018-08-25T21:57:08.743Z,95249.00
2018-08-25T21:59:39.711Z,95242.00
2018-08-25T22:02:14.652Z,95240.00
2018-08-25T22:04:45.496Z,95238.00
2018-08-25T22:07:16.330Z,95236.00
2018-08-25T22:09:47.083Z,95238.00
2018-08-25T22:12:17.928Z,95253.00
2018-08-25T22:14:48.879Z,95249.00
2018-08-25T22:17:19.660Z,95260.00
2018-08-25T22:19:50.469Z,95257.00
2018-08-25T22:22:21.307Z,95254.00
2018-08-25T22:24:52.031Z,95249.00
2018-08-25T22:27:23.455Z,95252.00
2018-08-25T22:29:54.175Z,95251.00
2018-08-25T22:32:24.953Z,95249.00
2018-08-25T22:34:55.634Z,95248.00
2018-08-25T22:37:26.388Z,95245.00
2018-08-25T22:39:57.112Z,95244.00
2018-08-25T22:42:27.958Z,95243.00
2018-08-25T22:44:58.720Z,95246.00
2018-08-25T22:47:29.573Z,95244.00
2018-08-25T22:50:00.470Z,95237.00
2018-08-25T22:52:36.364Z,95246.00
2018-08-25T22:55:07.175Z,95243.00
2018-08-25T22:57:37.929Z,95235.00
2018-08-25T23:00:08.848Z,95238.00
2018-08-25T23:02:40.921Z,95240.00
2018-08-25T23:05:11.770Z,95246.00
2018-08-25T23:07:42.922Z,95250.00
2018-08-25T23:10:13.755Z,95251.00
2018-08-25T23:12:44.609Z,95258.00
2018-08-25T23:15:15.438Z,95263.00
2018-08-25T23:17:46.188Z,95269.00
2018-08-25T23:20:16.982Z,95264.00
2018-08-25T23:22:47.762Z,95264.00
2018-08-25T23:25:18.491Z,95262.00
2018-08-25T23:27:49.309Z,95260.00
2018-08-25T23:30:20.118Z,95253.00
2018-08-25T23:32:51.406Z,95263.00
2018-08-25T23:35:22.282Z,95263.00
2018-08-25T23:37:53.073Z,95263.00
2018-08-25T23:40:23.771Z,95271.00
2018-08-25T23:42:54.706Z,95261.00
2018-08-25T23:45:25.421Z,95264.00
2018-08-25T23:47:56.328Z,95266.00
2018-08-25T23:50:27.206Z,95269.00
2018-08-25T23:52:58.000Z,95268.00
2018-08-25T23:55:28.970Z,95273.00
2018-08-25T23:57:59.778Z,95281.00
